createdAt,value
2022-12-23T00:01:39.377Z,3.86
2022-12-23T00:04:49.245Z,3.89
2022-12-23T00:07:55.872Z,3.93
2022-12-23T00:11:02.578Z,3.95
2022-12-23T00:14:41.335Z,3.96
2022-12-23T00:17:48.382Z,3.96
2022-12-23T00:21:08.114Z,3.97
2022-12-23T00:24:15.530Z,3.99
2022-12-23T00:27:22.151Z,4.01
2022-12-23T00:30:29.745Z,4.05
2022-12-23T00:33:38.555Z,4.06
2022-12-23T00:36:45.401Z,4.08
2022-12-23T00:40:09.415Z,4.11
2022-12-23T00:43:16.146Z,4.12
2022-12-23T00:46:26.333Z,4.12
2022-12-23T00:49:45.059Z,4.10
2022-12-23T00:52:52.018Z,4.05
2022-12-23T00:55:59.120Z,4.01
2022-12-23T00:59:06.040Z,3.97
2022-12-23T01:02:31.181Z,3.92
2022-12-23T01:05:38.611Z,3.86
2022-12-23T01:08:45.448Z,3.82
2022-12-23T01:11:52.127Z,3.80
2022-12-23T01:14:58.748Z,3.78
2022-12-23T01:18:05.533Z,3.76
2022-12-23T01:21:12.934Z,3.72
2022-12-23T01:24:19.936Z,3.63
2022-12-23T01:27:26.932Z,3.59
2022-12-23T01:30:33.897Z,3.57
2022-12-23T01:33:40.559Z,3.56
2022-12-23T01:36:47.411Z,3.59
2022-12-23T01:39:54.087Z,3.62
2022-12-23T01:43:00.839Z,3.67
2022-12-23T01:46:07.629Z,3.72
2022-12-23T01:49:14.484Z,3.80
2022-12-23T01:52:21.755Z,3.88
2022-12-23T01:55:32.296Z,3.94
2022-12-23T01:58:42.446Z,3.97
2022-12-23T02:02:06.617Z,4.00
2022-12-23T02:05:14.111Z,4.04
2022-12-23T02:08:38.892Z,4.08
2022-12-23T02:12:17.686Z,4.13
2022-12-23T02:15:52.899Z,4.16
2022-12-23T02:19:11.823Z,4.20
2022-12-23T02:22:39.113Z,4.23
2022-12-23T02:26:05.745Z,4.27
2022-12-23T02:29:51.782Z,4.29
2022-12-23T02:33:32.029Z,4.29
2022-12-23T02:36:48.264Z,4.24
2022-12-23T02:39:59.044Z,4.21
2022-12-23T02:43:13.593Z,4.18
2022-12-23T02:46:25.066Z,4.17
2022-12-23T02:49:35.338Z,4.14
2022-12-23T02:52:45.982Z,4.12
2022-12-23T02:55:56.049Z,4.11
2022-12-23T02:59:06.730Z,4.12
2022-12-23T03:02:13.774Z,4.12
2022-12-23T03:05:29.237Z,4.13
2022-12-23T03:08:44.759Z,4.15
2022-12-23T03:12:00.574Z,4.18
2022-12-23T03:15:23.225Z,4.20
2022-12-23T03:18:35.588Z,4.21
2022-12-23T03:21:47.530Z,4.22
2022-12-23T03:25:04.485Z,4.24
2022-12-23T03:28:17.262Z,4.25
2022-12-23T03:31:28.259Z,4.26
2022-12-23T03:34:38.757Z,4.28
2022-12-23T03:37:50.283Z,4.31
2022-12-23T03:41:01.186Z,4.34
2022-12-23T03:44:11.470Z,4.37
2022-12-23T03:47:24.769Z,4.38
2022-12-23T03:50:33.157Z,4.40
2022-12-23T03:53:43.328Z,4.41
2022-12-23T03:56:54.990Z,4.43
2022-12-23T04:00:01.692Z,4.45
2022-12-23T04:03:19.981Z,4.48
2022-12-23T04:06:29.254Z,4.49
2022-12-23T04:09:38.104Z,4.50
2022-12-23T04:12:45.210Z,4.48
2022-12-23T04:15:51.941Z,4.48
2022-12-23T04:18:58.761Z,4.47
2022-12-23T04:22:05.555Z,4.46
2022-12-23T04:25:13.379Z,4.46
2022-12-23T04:28:20.521Z,4.47
2022-12-23T04:31:27.286Z,4.46
2022-12-23T04:34:34.097Z,4.45
2022-12-23T04:37:41.367Z,4.43
2022-12-23T04:40:49.831Z,4.42
2022-12-23T04:43:56.462Z,4.41
2022-12-23T04:47:03.386Z,4.40
2022-12-23T04:50:16.217Z,4.37
2022-12-23T04:53:22.947Z,4.34
2022-12-23T04:56:29.760Z,4.33
2022-12-23T04:59:37.735Z,4.34
2022-12-23T05:02:44.571Z,4.34
2022-12-23T05:05:51.784Z,4.36
2022-12-23T05:09:00.978Z,4.39
2022-12-23T05:12:08.141Z,4.39
2022-12-23T05:15:16.835Z,4.40
2022-12-23T05:18:27.223Z,4.39
2022-12-23T05:21:33.974Z,4.38
2022-12-23T05:24:40.673Z,4.37
2022-12-23T05:27:47.508Z,4.38
2022-12-23T05:31:00.487Z,4.39
2022-12-23T05:34:07.260Z,4.41
2022-12-23T05:37:14.063Z,4.41
2022-12-23T05:40:24.725Z,4.44
2022-12-23T05:43:35.634Z,4.50
2022-12-23T05:46:42.340Z,4.55
2022-12-23T05:49:50.707Z,4.60
2022-12-23T05:52:57.913Z,4.62
2022-12-23T05:56:08.406Z,4.62
2022-12-23T05:59:15.186Z,4.61
2022-12-23T06:02:22.433Z,4.60
2022-12-23T06:05:29.432Z,4.61
2022-12-23T06:08:36.297Z,4.64
2022-12-23T06:11:42.843Z,4.68
2022-12-23T06:14:49.601Z,4.69
2022-12-23T06:17:59.531Z,4.70
2022-12-23T06:21:06.931Z,4.71
2022-12-23T06:24:14.179Z,4.68
2022-12-23T06:27:20.937Z,4.65
2022-12-23T06:30:27.627Z,4.63
2022-12-23T06:33:34.421Z,4.62
2022-12-23T06:36:41.521Z,4.63
2022-12-23T06:39:48.135Z,4.62
2022-12-23T06:42:54.997Z,4.62
2022-12-23T06:46:01.743Z,4.63
2022-12-23T06:49:13.196Z,4.64
2022-12-23T06:52:20.647Z,4.64
2022-12-23T06:55:27.420Z,4.64
2022-12-23T06:58:34.541Z,4.65
2022-12-23T07:01:43.086Z,4.67
2022-12-23T07:04:50.179Z,4.68
2022-12-23T07:07:58.345Z,4.71
2022-12-23T07:11:06.778Z,4.70
2022-12-23T07:14:13.596Z,4.70
2022-12-23T07:17:20.851Z,4.68
2022-12-23T07:20:27.762Z,4.70
2022-12-23T07:23:34.698Z,4.72
2022-12-23T07:26:41.417Z,4.73
2022-12-23T07:29:48.022Z,4.73
2022-12-23T07:32:55.098Z,4.75
2022-12-23T07:36:01.953Z,4.77
2022-12-23T07:39:08.865Z,4.80
2022-12-23T07:42:43.388Z,4.84
2022-12-23T07:45:42.376Z,4.88
2022-12-23T07:48:49.196Z,4.88
2022-12-23T07:51:55.778Z,4.88
2022-12-23T07:55:02.628Z,4.87
2022-12-23T07:58:09.520Z,4.87
2022-12-23T08:01:16.725Z,4.90
2022-12-23T08:04:25.669Z,4.93
2022-12-23T08:07:32.341Z,4.95
2022-12-23T08:10:44.368Z,4.99
2022-12-23T08:13:54.887Z,5.03
2022-12-23T08:17:03.857Z,5.05
2022-12-23T08:20:12.753Z,5.06
2022-12-23T08:23:24.570Z,5.04
2022-12-23T08:26:32.029Z,5.02
2022-12-23T08:29:40.006Z,5.01
2022-12-23T08:32:47.772Z,5.01
2022-12-23T08:35:57.568Z,5.02
2022-12-23T08:39:08.477Z,5.05
2022-12-23T08:42:15.483Z,5.08
2022-12-23T08:45:22.360Z,5.12
2022-12-23T08:48:29.220Z,5.15
2022-12-23T08:51:36.135Z,5.18
2022-12-23T08:54:42.914Z,5.19
2022-12-23T08:57:49.967Z,5.21
2022-12-23T09:00:56.829Z,5.26
2022-12-23T09:04:08.867Z,5.34
2022-12-23T09:07:15.539Z,5.43
2022-12-23T09:10:23.362Z,5.50
2022-12-23T09:13:35.093Z,5.55
2022-12-23T09:16:42.826Z,5.59
2022-12-23T09:19:53.012Z,5.60
2022-12-23T09:23:02.358Z,5.61
2022-12-23T09:26:10.757Z,5.65
2022-12-23T09:29:17.567Z,5.72
2022-12-23T09:32:24.321Z,5.77
2022-12-23T09:35:30.964Z,5.84
2022-12-23T09:38:37.734Z,5.89
2022-12-23T09:42:01.892Z,5.91
2022-12-23T09:45:40.357Z,5.91
2022-12-23T09:48:53.389Z,5.89
2022-12-23T09:52:05.951Z,5.91
2022-12-23T09:55:15.560Z,5.96
2022-12-23T09:58:30.949Z,6.04
2022-12-23T10:01:45.777Z,6.12
2022-12-23T10:05:02.950Z,6.15
2022-12-23T10:08:18.737Z,6.15
2022-12-23T10:11:29.212Z,6.09
2022-12-23T10:14:38.349Z,6.04
2022-12-23T10:17:46.343Z,6.04
2022-12-23T10:20:58.901Z,6.07
2022-12-23T10:24:13.797Z,6.11
2022-12-23T10:27:29.402Z,6.14
2022-12-23T10:31:05.836Z,6.16
2022-12-23T10:34:21.302Z,6.22
2022-12-23T10:37:35.786Z,6.33
2022-12-23T10:40:55.705Z,6.45
2022-12-23T10:44:19.380Z,6.55
2022-12-23T10:47:42.186Z,6.53
2022-12-23T10:50:58.257Z,6.50
2022-12-23T10:54:11.395Z,6.48
2022-12-23T10:57:20.351Z,6.45
2022-12-23T11:00:28.005Z,6.38
2022-12-23T11:03:39.418Z,6.30
2022-12-23T11:07:10.644Z,6.25
2022-12-23T11:10:34.309Z,6.21
2022-12-23T11:13:42.960Z,6.09
2022-12-23T11:16:49.760Z,5.95
2022-12-23T11:20:15.784Z,5.83
2022-12-23T11:23:28.966Z,5.73
2022-12-23T11:26:36.640Z,5.70
2022-12-23T11:29:51.737Z,5.73
2022-12-23T11:32:59.793Z,5.72
2022-12-23T11:36:10.032Z,5.71
2022-12-23T11:39:27.410Z,5.74
2022-12-23T11:42:36.684Z,5.71
2022-12-23T11:45:43.650Z,5.65
2022-12-23T11:48:54.737Z,5.61
2022-12-23T11:52:14.963Z,5.59
2022-12-23T11:55:29.883Z,5.53
2022-12-23T11:58:41.667Z,5.47
2022-12-23T12:01:50.508Z,5.50
2022-12-23T12:05:00.576Z,5.49
2022-12-23T12:08:11.492Z,5.45
2022-12-23T12:11:23.318Z,5.41
2022-12-23T12:14:38.174Z,5.35
2022-12-23T12:17:52.347Z,5.28
2022-12-23T12:21:04.889Z,5.26
2022-12-23T12:24:20.729Z,5.22
2022-12-23T12:27:36.111Z,5.18
2022-12-23T12:30:50.447Z,5.16
2022-12-23T12:34:02.880Z,5.16
2022-12-23T12:37:21.268Z,5.21
2022-12-23T12:40:35.237Z,5.26
2022-12-23T12:43:47.806Z,5.26
2022-12-23T12:46:59.649Z,5.27
2022-12-23T12:50:13.961Z,5.29
2022-12-23T12:53:23.557Z,5.35
2022-12-23T12:56:32.415Z,5.39
2022-12-23T12:59:41.492Z,5.40
2022-12-23T13:03:12.460Z,5.38
2022-12-23T13:06:27.558Z,5.36
2022-12-23T13:09:49.297Z,5.34
2022-12-23T13:13:05.619Z,5.31
2022-12-23T13:16:23.404Z,5.31
2022-12-23T13:19:39.693Z,5.33
2022-12-23T13:22:51.115Z,5.40
2022-12-23T13:26:03.159Z,5.49
2022-12-23T13:29:36.186Z,5.60
2022-12-23T13:33:07.395Z,5.73
2022-12-23T13:36:27.961Z,5.81
2022-12-23T13:39:46.845Z,5.80
2022-12-23T13:42:56.865Z,5.74
2022-12-23T13:46:09.691Z,5.70
2022-12-23T13:49:29.000Z,5.64
2022-12-23T13:52:51.591Z,5.59
2022-12-23T13:56:12.816Z,5.58
2022-12-23T13:59:19.836Z,5.54
2022-12-23T14:02:51.698Z,5.43
2022-12-23T14:05:58.693Z,5.32
2022-12-23T14:09:06.013Z,5.22
2022-12-23T14:12:22.249Z,5.14
2022-12-23T14:15:46.306Z,5.07
2022-12-23T14:19:15.808Z,5.04
2022-12-23T14:22:39.136Z,5.00
2022-12-23T14:26:27.828Z,4.93
2022-12-23T14:29:52.786Z,4.90
2022-12-23T14:33:01.880Z,4.88
2022-12-23T14:36:26.427Z,4.90
2022-12-23T14:39:35.166Z,4.87
2022-12-23T14:42:45.812Z,4.86
2022-12-23T14:45:54.440Z,4.90
2022-12-23T14:49:40.848Z,4.94
2022-12-23T14:53:02.342Z,4.96
2022-12-23T14:56:26.760Z,4.97
2022-12-23T14:59:41.394Z,5.01
2022-12-23T15:02:48.651Z,5.05
2022-12-23T15:06:08.029Z,5.05
2022-12-23T15:09:24.867Z,5.03
2022-12-23T15:12:36.162Z,5.01
2022-12-23T15:16:00.620Z,5.02
2022-12-23T15:19:20.903Z,5.05
2022-12-23T15:22:33.430Z,5.10
2022-12-23T15:25:48.034Z,5.17
2022-12-23T15:28:56.943Z,5.23
2022-12-23T15:32:04.711Z,5.27
2022-12-23T15:35:19.197Z,5.30
2022-12-23T15:38:30.885Z,5.32
2022-12-23T15:41:44.766Z,5.34
2022-12-23T15:44:52.524Z,5.37
2022-12-23T15:47:59.227Z,5.40
2022-12-23T15:51:12.733Z,5.40
2022-12-23T15:54:25.641Z,5.42
2022-12-23T15:57:33.144Z,5.42
2022-12-23T16:00:50.129Z,5.39
2022-12-23T16:04:01.486Z,5.38
2022-12-23T16:07:24.666Z,5.39
2022-12-23T16:10:32.212Z,5.40
2022-12-23T16:13:43.079Z,5.41
2022-12-23T16:16:59.229Z,5.40
2022-12-23T16:20:23.840Z,5.35
2022-12-23T16:23:33.982Z,5.32
2022-12-23T16:26:48.337Z,5.30
2022-12-23T16:29:55.402Z,5.30
2022-12-23T16:33:04.740Z,5.29
2022-12-23T16:36:32.891Z,5.31
2022-12-23T16:39:42.121Z,5.32
2022-12-23T16:42:54.354Z,5.29
2022-12-23T16:46:01.599Z,5.26
2022-12-23T16:49:15.398Z,5.27
2022-12-23T16:52:26.794Z,5.27
2022-12-23T16:55:33.511Z,5.25
2022-12-23T16:58:40.377Z,5.24
2022-12-23T17:01:49.500Z,5.22
2022-12-23T17:04:56.399Z,5.20
2022-12-23T17:08:04.691Z,5.17
2022-12-23T17:11:16.793Z,5.13
2022-12-23T17:14:25.688Z,5.09
2022-12-23T17:17:32.924Z,5.06
2022-12-23T17:20:39.996Z,5.06
2022-12-23T17:23:48.195Z,5.06
2022-12-23T17:26:56.913Z,5.06
2022-12-23T17:30:15.147Z,5.06
2022-12-23T17:33:22.667Z,5.03
2022-12-23T17:36:29.638Z,4.98
2022-12-23T17:39:36.473Z,4.95
2022-12-23T17:42:43.727Z,4.93
2022-12-23T17:45:50.516Z,4.91
2022-12-23T17:48:59.120Z,4.90
2022-12-23T17:52:12.607Z,4.92
2022-12-23T17:55:22.677Z,4.95
2022-12-23T17:58:29.549Z,4.98
2022-12-23T18:01:36.528Z,4.98
2022-12-23T18:04:43.315Z,4.96
2022-12-23T18:07:50.323Z,4.98
2022-12-23T18:10:58.396Z,4.96
2022-12-23T18:14:06.109Z,4.93
2022-12-23T18:17:17.117Z,4.89
2022-12-23T18:20:26.083Z,4.87
2022-12-23T18:23:34.364Z,4.88
2022-12-23T18:26:41.094Z,4.92
2022-12-23T18:29:48.734Z,4.95
2022-12-23T18:32:55.399Z,4.97
2022-12-23T18:36:02.094Z,4.99
2022-12-23T18:39:08.900Z,4.98
2022-12-23T18:42:17.257Z,4.99
2022-12-23T18:45:29.917Z,5.01
2022-12-23T18:48:36.630Z,5.02
2022-12-23T18:51:45.408Z,5.02
2022-12-23T18:54:53.445Z,5.00
2022-12-23T18:58:01.526Z,4.96
2022-12-23T19:01:11.209Z,4.91
2022-12-23T19:04:16.379Z,4.88
2022-12-23T19:07:25.093Z,4.84
2022-12-23T19:10:34.022Z,4.81
2022-12-23T19:13:41.052Z,4.79
2022-12-23T19:16:51.912Z,4.75
2022-12-23T19:19:59.540Z,4.73
2022-12-23T19:23:06.696Z,4.72
2022-12-23T19:26:15.824Z,4.72
2022-12-23T19:29:22.939Z,4.75
2022-12-23T19:32:29.595Z,4.77
2022-12-23T19:35:36.669Z,4.81
2022-12-23T19:38:46.602Z,4.82
2022-12-23T19:41:53.242Z,4.81
2022-12-23T19:44:59.974Z,4.80
2022-12-23T19:48:08.251Z,4.80
2022-12-23T19:51:15.925Z,4.81
2022-12-23T19:54:22.910Z,4.81
2022-12-23T19:57:29.760Z,4.84
2022-12-23T20:00:36.513Z,4.87
2022-12-23T20:03:45.321Z,4.89
2022-12-23T20:06:52.615Z,4.91
2022-12-23T20:09:59.279Z,4.92
2022-12-23T20:13:08.073Z,4.92
2022-12-23T20:16:16.127Z,4.92
2022-12-23T20:19:22.768Z,4.95
2022-12-23T20:22:29.517Z,4.98
2022-12-23T20:25:36.079Z,4.97
2022-12-23T20:28:43.056Z,4.95
2022-12-23T20:31:49.775Z,4.95
2022-12-23T20:34:56.441Z,4.95
2022-12-23T20:38:03.268Z,4.96
2022-12-23T20:41:12.083Z,4.96
2022-12-23T20:44:36.882Z,4.99
2022-12-23T20:47:43.877Z,5.01
2022-12-23T20:50:50.830Z,5.01
2022-12-23T20:54:01.020Z,5.01
2022-12-23T20:57:07.872Z,5.01
2022-12-23T21:00:16.785Z,5.02
2022-12-23T21:03:23.678Z,5.04
2022-12-23T21:06:31.458Z,5.06
2022-12-23T21:09:38.332Z,5.05
2022-12-23T21:12:45.058Z,5.03
2022-12-23T21:15:51.816Z,5.03
2022-12-23T21:18:59.368Z,5.06
2022-12-23T21:22:06.145Z,5.08
2022-12-23T21:25:13.306Z,5.11
2022-12-23T21:28:20.004Z,5.10
2022-12-23T21:31:27.429Z,5.09
2022-12-23T21:34:34.209Z,5.07
2022-12-23T21:37:40.922Z,5.08
2022-12-23T21:40:47.518Z,5.09
2022-12-23T21:43:54.633Z,5.11
2022-12-23T21:47:01.304Z,5.13
2022-12-23T21:50:10.403Z,5.13
2022-12-23T21:53:17.080Z,5.13
2022-12-23T21:56:26.116Z,5.14
2022-12-23T21:59:35.182Z,5.15
2022-12-23T22:02:42.598Z,5.18
2022-12-23T22:05:49.377Z,5.21
2022-12-23T22:08:58.590Z,5.23
2022-12-23T22:12:05.444Z,5.23
2022-12-23T22:15:13.028Z,5.25
2022-12-23T22:18:19.734Z,5.28
2022-12-23T22:21:29.083Z,5.32
2022-12-23T22:24:35.896Z,5.32
2022-12-23T22:27:42.596Z,5.29
2022-12-23T22:30:49.376Z,5.22
2022-12-23T22:33:56.203Z,5.15
2022-12-23T22:37:02.803Z,5.08
2022-12-23T22:40:11.349Z,5.02
2022-12-23T22:43:18.185Z,5.00
2022-12-23T22:46:25.601Z,4.96
2022-12-23T22:49:32.443Z,4.92
2022-12-23T22:52:39.436Z,4.87
2022-12-23T22:55:46.127Z,4.84
2022-12-23T22:58:54.079Z,4.81
2022-12-23T23:02:01.179Z,4.80
2022-12-23T23:05:12.905Z,4.75
2022-12-23T23:08:20.210Z,4.69
2022-12-23T23:11:28.411Z,4.62
2022-12-23T23:14:52.424Z,4.55
2022-12-23T23:17:59.612Z,4.50
2022-12-23T23:21:06.673Z,4.45
2022-12-23T23:24:13.463Z,4.44
2022-12-23T23:27:20.394Z,4.40
2022-12-23T23:30:27.155Z,4.37
2022-12-23T23:33:34.061Z,4.35
2022-12-23T23:36:40.956Z,4.33
2022-12-23T23:39:47.803Z,4.32
2022-12-23T23:42:54.877Z,4.29
2022-12-23T23:46:01.696Z,4.28
2022-12-23T23:49:08.474Z,4.26
2022-12-23T23:52:15.229Z,4.25
2022-12-23T23:55:21.912Z,4.24
2022-12-23T23:58:28.643Z,4.23
